La Porsche — VY9305 — position and weather

sailwx.info

Track history (hours):
 
Tides and Currents Weather Stations Pressure Air Temp Water Temp Dewpoint Dewpoint Depression Visibility Wind Speed Wind Dir Waves Ship Positions

La Porsche

Last reported at 2015-May-29 23:31 UTC. Time now 2015-Jul-01 19:13 UTC.
Position N 58°43' W 136°11'.
Warning: this ship's position is 32 days out of date.

Length 22 m; draft 3 m.

Type: Fishing. MMSI: 316001649.

Date/timePositionNaut miles runAvg speedWind from/ knotsBaromVisibWave heightAir tempDewpointWater temp
2015-May-29 23:31N 58°43' W 136°11'7 7.6
2015-May-29 22:34N 58°36' W 136°04'7 7.0
2015-May-29 21:33N 58°29' W 136°03'7 7.1
2015-May-29 20:33N 58°23' W 135°58'8 7.8
2015-May-29 19:33N 58°18' W 135°45'  
2015-May-24 09:29N 52°06' W 128°07'7 7.5
2015-May-24 08:31N 52°04' W 127°56'8 7.9
2015-May-24 07:33N 51°56' W 127°56'8 7.9
2015-May-24 06:33N 51°48' W 127°56'8 7.9
2015-May-24 05:29N 51°40' W 127°54'9 7.8
2015-May-24 04:20N 51°31' W 127°52'15 7.6
2015-May-24 02:22N 51°16' W 127°52'6 7.3
2015-May-24 01:33N 51°10' W 127°51'8 7.6
2015-May-24 00:32N 51°04' W 127°42'8 7.7
2015-May-23 23:33N 50°59' W 127°33'7 7.0
2015-May-23 22:33N 50°55' W 127°25'8 7.5
2015-May-23 21:33N 50°51' W 127°15'8 8.4
2015-May-23 20:32N 50°46' W 127°04'8 8.1
2015-May-23 19:31N 50°41' W 126°53'12 9.0
2015-May-23 18:13N 50°33' W 126°41'7 9.0
2015-May-23 17:29N 50°31' W 126°31'100 7.6
2015-May-23 04:19N 49°35' W 124°23'7 9.1
2015-May-23 03:31N 49°31' W 124°13'10 8.8
2015-May-23 02:22N 49°27' W 123°59'9 9.3
2015-May-23 01:21N 49°24' W 123°45'7 9.0
2015-May-23 00:33N 49°21' W 123°35'9 9.1
2015-May-22 23:33N 49°18' W 123°22'9 9.0
2015-May-22 22:33N 49°13' W 123°10'9 8.7
2015-May-22 21:33N 49°12' W 122°57'2 1.8
2015-May-22 20:33N 49°11' W 122°55'0 0.0
2015-May-22 19:33N 49°11' W 122°55'0 0.0
2015-May-22 18:33N 49°11' W 122°55'0 0.0
2015-May-22 17:33N 49°11' W 122°55'0 0.0
2015-May-22 16:33N 49°11' W 122°55'0 0.0
2015-May-22 15:33N 49°11' W 122°55'0 0.0
2015-May-22 14:33N 49°11' W 122°55'0 0.0
2015-May-22 13:33N 49°11' W 122°55'0 0.0
2015-May-22 12:33N 49°11' W 122°55'0 0.0
2015-May-22 11:33N 49°11' W 122°55'0 0.0
2015-May-22 10:33N 49°11' W 122°55'0 0.0
2015-May-22 09:33N 49°11' W 122°55'0 0.0
2015-May-22 08:33N 49°11' W 122°55'0 0.0
2015-May-22 07:33N 49°11' W 122°55'0 0.0
2015-May-22 06:33N 49°11' W 122°55'0 0.0
2015-May-22 05:33N 49°11' W 122°55'0 0.0
2015-May-22 04:33N 49°11' W 122°55'0 0.0
2015-May-22 03:33N 49°11' W 122°55'0 0.0
2015-May-22 02:33N 49°11' W 122°55'0 0.0
2015-May-22 01:33N 49°11' W 122°55'0 0.0
2015-May-22 00:33N 49°11' W 122°55'0 0.0
2015-May-21 23:33N 49°11' W 122°55'0 0.0
2015-May-21 22:33N 49°11' W 122°55'0 0.0
2015-May-21 21:33N 49°11' W 122°55'0 0.0
2015-May-21 20:33N 49°11' W 122°55'0 0.0
2015-May-21 19:33N 49°11' W 122°55'0 0.0
2015-May-21 18:33N 49°11' W 122°55'0 0.0
2015-May-21 17:33N 49°11' W 122°55'0 0.0
2015-May-21 16:33N 49°11' W 122°55'0 0.0
2015-May-21 15:33N 49°11' W 122°55'0 0.0
2015-May-21 14:33N 49°11' W 122°55'0 0.0
2015-May-21 13:33N 49°11' W 122°55'0 0.0
2015-May-21 12:33N 49°11' W 122°55'0 0.0
2015-May-21 11:33N 49°11' W 122°55'0 0.0
2015-May-21 10:33N 49°11' W 122°55'0 0.0
2015-May-21 09:33N 49°11' W 122°55'0 0.0
2015-May-21 08:33N 49°11' W 122°55'0 0.0
2015-May-21 07:33N 49°11' W 122°55'0 0.0
2015-May-21 06:33N 49°11' W 122°55'0 0.0
2015-May-21 05:33N 49°11' W 122°55'0 0.0
2015-May-21 04:33N 49°11' W 122°55'0 0.0
2015-May-21 03:33N 49°11' W 122°55'0 0.0
2015-May-21 02:33N 49°11' W 122°55'0 0.0
2015-May-21 01:33N 49°11' W 122°55'0 0.0
2015-May-21 00:33N 49°11' W 122°55'0 0.0
2015-May-20 23:33N 49°11' W 122°55'0 0.0
2015-May-20 22:33N 49°11' W 122°55'0 0.0
2015-May-20 21:33N 49°11' W 122°55'0 0.0
2015-May-20 20:33N 49°11' W 122°55'0 0.0
2015-May-20 19:33N 49°11' W 122°55'0 0.0
2015-May-20 18:33N 49°11' W 122°55'0 0.0
2015-May-20 17:33N 49°11' W 122°55'0 0.0
2015-May-20 16:33N 49°11' W 122°55'0 0.0
2015-May-20 15:33N 49°11' W 122°55'0 0.0
2015-May-20 14:33N 49°11' W 122°55'0 0.0
2015-May-20 13:33N 49°11' W 122°55'0 0.0
2015-May-20 12:33N 49°11' W 122°55'0 0.0
2015-May-20 11:33N 49°11' W 122°55'0 0.0
2015-May-20 10:33N 49°11' W 122°55'0 0.0
2015-May-20 09:33N 49°11' W 122°55'0 0.0
2015-May-20 08:33N 49°11' W 122°55'0 0.0
2015-May-20 07:33N 49°11' W 122°55'0 0.0
2015-May-20 06:33N 49°11' W 122°55'0 0.0
2015-May-20 05:33N 49°11' W 122°55'0 0.0
2015-May-20 04:33N 49°11' W 122°55'0 0.0
2015-May-20 03:33N 49°11' W 122°55'0 0.0
2015-May-20 02:30N 49°11' W 122°55'0 0.0
2015-May-20 01:33N 49°11' W 122°55'0 0.0
2015-May-20 00:33N 49°11' W 122°55'0 0.0
2015-May-19 23:33N 49°11' W 122°55'  
Track history (hours):
 
Tides and Currents Weather Stations Pressure Air Temp Water Temp Dewpoint Dewpoint Depression Visibility Wind Speed Wind Dir Waves Ship Positions

La Porsche

Last reported at 2015-May-29 23:31 UTC. Time now 2015-Jul-01 19:13 UTC.
Position N 58°43' W 136°11'.
Warning: this ship's position is 32 days out of date.

Length 22 m; draft 3 m.

Type: Fishing. MMSI: 316001649.

Date/timePositionNaut miles runAvg speedWind from/ knotsBaromVisibWave heightAir tempDewpointWater temp
2015-May-29 23:31N 58°43' W 136°11'7 7.6
2015-May-29 22:34N 58°36' W 136°04'7 7.0
2015-May-29 21:33N 58°29' W 136°03'7 7.1
2015-May-29 20:33N 58°23' W 135°58'8 7.8
2015-May-29 19:33N 58°18' W 135°45'  
2015-May-24 09:29N 52°06' W 128°07'7 7.5
2015-May-24 08:31N 52°04' W 127°56'8 7.9
2015-May-24 07:33N 51°56' W 127°56'8 7.9
2015-May-24 06:33N 51°48' W 127°56'8 7.9
2015-May-24 05:29N 51°40' W 127°54'9 7.8
2015-May-24 04:20N 51°31' W 127°52'15 7.6
2015-May-24 02:22N 51°16' W 127°52'6 7.3
2015-May-24 01:33N 51°10' W 127°51'8 7.6
2015-May-24 00:32N 51°04' W 127°42'8 7.7
2015-May-23 23:33N 50°59' W 127°33'7 7.0
2015-May-23 22:33N 50°55' W 127°25'8 7.5
2015-May-23 21:33N 50°51' W 127°15'8 8.4
2015-May-23 20:32N 50°46' W 127°04'8 8.1
2015-May-23 19:31N 50°41' W 126°53'12 9.0
2015-May-23 18:13N 50°33' W 126°41'7 9.0
2015-May-23 17:29N 50°31' W 126°31'100 7.6
2015-May-23 04:19N 49°35' W 124°23'7 9.1
2015-May-23 03:31N 49°31' W 124°13'10 8.8
2015-May-23 02:22N 49°27' W 123°59'9 9.3
2015-May-23 01:21N 49°24' W 123°45'7 9.0
2015-May-23 00:33N 49°21' W 123°35'9 9.1
2015-May-22 23:33N 49°18' W 123°22'9 9.0
2015-May-22 22:33N 49°13' W 123°10'9 8.7
2015-May-22 21:33N 49°12' W 122°57'2 1.8
2015-May-22 20:33N 49°11' W 122°55'0 0.0
2015-May-22 19:33N 49°11' W 122°55'0 0.0
2015-May-22 18:33N 49°11' W 122°55'0 0.0
2015-May-22 17:33N 49°11' W 122°55'0 0.0
2015-May-22 16:33N 49°11' W 122°55'0 0.0
2015-May-22 15:33N 49°11' W 122°55'0 0.0
2015-May-22 14:33N 49°11' W 122°55'0 0.0
2015-May-22 13:33N 49°11' W 122°55'0 0.0
2015-May-22 12:33N 49°11' W 122°55'0 0.0
2015-May-22 11:33N 49°11' W 122°55'0 0.0
2015-May-22 10:33N 49°11' W 122°55'0 0.0
2015-May-22 09:33N 49°11' W 122°55'0 0.0
2015-May-22 08:33N 49°11' W 122°55'0 0.0
2015-May-22 07:33N 49°11' W 122°55'0 0.0
2015-May-22 06:33N 49°11' W 122°55'0 0.0
2015-May-22 05:33N 49°11' W 122°55'0 0.0
2015-May-22 04:33N 49°11' W 122°55'0 0.0
2015-May-22 03:33N 49°11' W 122°55'0 0.0
2015-May-22 02:33N 49°11' W 122°55'0 0.0
2015-May-22 01:33N 49°11' W 122°55'0 0.0
2015-May-22 00:33N 49°11' W 122°55'0 0.0
2015-May-21 23:33N 49°11' W 122°55'0 0.0
2015-May-21 22:33N 49°11' W 122°55'0 0.0
2015-May-21 21:33N 49°11' W 122°55'0 0.0
2015-May-21 20:33N 49°11' W 122°55'0 0.0
2015-May-21 19:33N 49°11' W 122°55'0 0.0
2015-May-21 18:33N 49°11' W 122°55'0 0.0
2015-May-21 17:33N 49°11' W 122°55'0 0.0
2015-May-21 16:33N 49°11' W 122°55'0 0.0
2015-May-21 15:33N 49°11' W 122°55'0 0.0
2015-May-21 14:33N 49°11' W 122°55'0 0.0
2015-May-21 13:33N 49°11' W 122°55'0 0.0
2015-May-21 12:33N 49°11' W 122°55'0 0.0
2015-May-21 11:33N 49°11' W 122°55'0 0.0
2015-May-21 10:33N 49°11' W 122°55'0 0.0
2015-May-21 09:33N 49°11' W 122°55'0 0.0
2015-May-21 08:33N 49°11' W 122°55'0 0.0
2015-May-21 07:33N 49°11' W 122°55'0 0.0
2015-May-21 06:33N 49°11' W 122°55'0 0.0
2015-May-21 05:33N 49°11' W 122°55'0 0.0
2015-May-21 04:33N 49°11' W 122°55'0 0.0
2015-May-21 03:33N 49°11' W 122°55'0 0.0
2015-May-21 02:33N 49°11' W 122°55'0 0.0
2015-May-21 01:33N 49°11' W 122°55'0 0.0
2015-May-21 00:33N 49°11' W 122°55'0 0.0
2015-May-20 23:33N 49°11' W 122°55'0 0.0
2015-May-20 22:33N 49°11' W 122°55'0 0.0
2015-May-20 21:33N 49°11' W 122°55'0 0.0
2015-May-20 20:33N 49°11' W 122°55'0 0.0
2015-May-20 19:33N 49°11' W 122°55'0 0.0
2015-May-20 18:33N 49°11' W 122°55'0 0.0
2015-May-20 17:33N 49°11' W 122°55'0 0.0
2015-May-20 16:33N 49°11' W 122°55'0 0.0
2015-May-20 15:33N 49°11' W 122°55'0 0.0
2015-May-20 14:33N 49°11' W 122°55'0 0.0
2015-May-20 13:33N 49°11' W 122°55'0 0.0
2015-May-20 12:33N 49°11' W 122°55'0 0.0
2015-May-20 11:33N 49°11' W 122°55'0 0.0
2015-May-20 10:33N 49°11' W 122°55'0 0.0
2015-May-20 09:33N 49°11' W 122°55'0 0.0
2015-May-20 08:33N 49°11' W 122°55'0 0.0
2015-May-20 07:33N 49°11' W 122°55'0 0.0
2015-May-20 06:33N 49°11' W 122°55'0 0.0
2015-May-20 05:33N 49°11' W 122°55'0 0.0
2015-May-20 04:33N 49°11' W 122°55'0 0.0
2015-May-20 03:33N 49°11' W 122°55'0 0.0
2015-May-20 02:30N 49°11' W 122°55'0 0.0
2015-May-20 01:33N 49°11' W 122°55'0 0.0
2015-May-20 00:33N 49°11' W 122°55'0 0.0
2015-May-19 23:33N 49°11' W 122°55'  

Dump ship's entire track history